createdAt,value
2022-10-04T00:01:48.129Z,99558.38
2022-10-04T00:06:58.829Z,99553.56
2022-10-04T00:12:02.141Z,99566.38
2022-10-04T00:17:27.423Z,99554.38
2022-10-04T00:22:33.133Z,99554.28
2022-10-04T00:27:41.750Z,99553.38
2022-10-04T00:33:03.485Z,99562.38
2022-10-04T00:38:13.431Z,99555.25
2022-10-04T00:43:27.923Z,99548.00
2022-10-04T00:48:39.243Z,99560.50
2022-10-04T00:53:51.601Z,99552.13
2022-10-04T00:59:09.806Z,99547.22
2022-10-04T01:04:49.953Z,99551.56
2022-10-04T01:10:01.036Z,99530.28
2022-10-04T01:15:07.654Z,99527.34
2022-10-04T01:20:28.509Z,99539.72
2022-10-04T01:25:50.363Z,99533.78
2022-10-04T01:30:55.098Z,99534.28
2022-10-04T01:35:57.574Z,99526.00
2022-10-04T01:46:39.655Z,99514.66
2022-10-04T01:51:54.684Z,99525.31
2022-10-04T01:57:11.221Z,99531.94
2022-10-04T02:02:20.806Z,99532.91
2022-10-04T02:07:26.254Z,99527.88
2022-10-04T02:12:37.656Z,99531.91
2022-10-04T02:17:43.056Z,99531.16
2022-10-04T02:22:48.863Z,99540.56
2022-10-04T02:27:53.334Z,99532.44
2022-10-04T02:32:58.450Z,99537.00
2022-10-04T02:38:15.697Z,99528.22
2022-10-04T02:43:22.851Z,99523.22
2022-10-04T02:48:32.419Z,99542.25
2022-10-04T02:53:49.854Z,99520.25
2022-10-04T02:58:57.263Z,99530.91
2022-10-04T03:04:00.395Z,99526.78
2022-10-04T03:09:08.171Z,99523.56
2022-10-04T03:14:20.078Z,99539.34
2022-10-04T03:19:26.527Z,99545.63
2022-10-04T03:24:30.985Z,99538.09
2022-10-04T03:29:35.368Z,99546.16
2022-10-04T03:39:58.375Z,99540.72
2022-10-04T03:45:07.466Z,99543.41
2022-10-04T03:50:35.781Z,99541.75
2022-10-04T03:55:40.954Z,99546.56
2022-10-04T04:00:56.865Z,99541.06
2022-10-04T04:06:00.486Z,99541.50
2022-10-04T04:11:04.557Z,99541.91
2022-10-04T04:16:09.657Z,99543.53
2022-10-04T04:21:14.404Z,99549.34
2022-10-04T04:26:25.063Z,99554.78
2022-10-04T04:31:54.675Z,99557.47
2022-10-04T04:37:01.275Z,99560.44
2022-10-04T04:42:16.408Z,99572.94
2022-10-04T04:47:36.128Z,99573.69
2022-10-04T04:52:38.862Z,99572.53
2022-10-04T04:57:42.438Z,99579.13
2022-10-04T05:03:06.119Z,99577.91
2022-10-04T05:08:19.601Z,99583.19
2022-10-04T05:13:22.840Z,99581.00
2022-10-04T05:18:25.050Z,99586.38
2022-10-04T05:28:59.982Z,99596.88
2022-10-04T05:34:07.147Z,99599.56
2022-10-04T05:39:12.470Z,99602.66
2022-10-04T05:44:21.886Z,99617.34
2022-10-04T05:49:26.020Z,99630.41
2022-10-04T05:54:35.353Z,99630.75
2022-10-04T05:59:40.667Z,99639.06
2022-10-04T06:05:08.573Z,99636.34
2022-10-04T06:10:26.190Z,99628.09
2022-10-04T06:15:56.164Z,99637.59
2022-10-04T06:21:06.523Z,99632.56
2022-10-04T06:26:15.259Z,99638.78
2022-10-04T06:31:29.014Z,99654.63
2022-10-04T06:36:40.532Z,99668.34
2022-10-04T06:41:59.548Z,99645.34
2022-10-04T06:47:19.954Z,99679.34
2022-10-04T06:52:29.760Z,99684.69
2022-10-04T06:57:51.680Z,99685.81
2022-10-04T07:03:27.429Z,99693.94
2022-10-04T07:09:14.522Z,99699.34
2022-10-04T07:14:32.930Z,99711.06
2022-10-04T07:20:02.999Z,99712.22
2022-10-04T07:25:09.913Z,99698.84
2022-10-04T07:30:17.661Z,99705.13
2022-10-04T07:35:25.986Z,99705.50
2022-10-04T07:40:50.990Z,99713.16
2022-10-04T07:46:03.243Z,99704.09
2022-10-04T07:51:27.477Z,99719.03
2022-10-04T08:02:04.032Z,99717.66
2022-10-04T08:07:17.071Z,99736.78
2022-10-04T08:12:26.949Z,99689.00
2022-10-04T08:17:38.758Z,99727.75
2022-10-04T08:22:59.672Z,99737.75
2022-10-04T08:28:24.526Z,99738.84
2022-10-04T08:33:39.054Z,99737.38
2022-10-04T08:38:49.337Z,99738.19
2022-10-04T08:44:06.023Z,99735.44
2022-10-04T08:49:27.062Z,99737.09
2022-10-04T08:54:42.769Z,99746.44
2022-10-04T08:59:48.751Z,99740.28
2022-10-04T09:05:03.353Z,99751.47
2022-10-04T09:10:25.624Z,99752.00
2022-10-04T09:15:29.206Z,99763.47
2022-10-04T09:20:51.819Z,99769.44
2022-10-04T09:26:14.065Z,99762.69
2022-10-04T09:31:43.091Z,99759.31
2022-10-04T09:36:52.869Z,99736.09
2022-10-04T09:41:58.791Z,99762.06
2022-10-04T09:47:21.202Z,99768.81
2022-10-04T09:52:43.567Z,99768.00
2022-10-04T09:58:15.094Z,99772.97
2022-10-04T10:03:23.658Z,99783.00
2022-10-04T10:09:00.025Z,99782.06
2022-10-04T10:14:04.189Z,99788.22
2022-10-04T10:19:18.022Z,99795.22
2022-10-04T10:24:45.900Z,99773.03
2022-10-04T10:30:06.746Z,99766.28
2022-10-04T10:35:15.833Z,99757.84
2022-10-04T10:40:31.806Z,99755.72
2022-10-04T10:45:53.070Z,99753.22
2022-10-04T10:51:14.539Z,99738.84
2022-10-04T10:56:29.919Z,99728.97
2022-10-04T11:01:59.588Z,99724.47
2022-10-04T11:07:23.066Z,99699.44
2022-10-04T11:12:28.197Z,99724.41
2022-10-04T11:17:56.435Z,99730.75
2022-10-04T11:23:14.225Z,99722.16
2022-10-04T11:28:31.987Z,99719.84
2022-10-04T11:34:00.427Z,99714.91
2022-10-04T11:39:13.257Z,99716.56
2022-10-04T11:44:18.609Z,99710.78
2022-10-04T11:49:24.075Z,99722.34
2022-10-04T11:54:56.718Z,99724.44
2022-10-04T12:00:10.904Z,99707.16
2022-10-04T12:05:23.640Z,99704.97
2022-10-04T12:10:37.038Z,99697.38
2022-10-04T12:15:39.311Z,99691.09
2022-10-04T12:20:53.340Z,99688.72
2022-10-04T12:26:15.739Z,99705.34
2022-10-04T12:31:23.983Z,99693.06
2022-10-04T12:36:49.477Z,99703.34
2022-10-04T12:42:03.542Z,99690.63
2022-10-04T12:47:24.688Z,99696.69
2022-10-04T12:52:42.059Z,99691.19
2022-10-04T12:58:21.901Z,99693.13
2022-10-04T13:03:27.888Z,99688.72
2022-10-04T13:08:45.822Z,99694.72
2022-10-04T13:14:06.545Z,99674.56
2022-10-04T13:19:27.256Z,99680.16
2022-10-04T13:24:55.628Z,99693.13
2022-10-04T13:30:14.572Z,99697.16
2022-10-04T13:35:28.837Z,99698.47
2022-10-04T13:40:55.015Z,99690.41
2022-10-04T13:46:00.670Z,99703.06
2022-10-04T13:51:15.374Z,99690.41
2022-10-04T13:56:41.466Z,99698.63
2022-10-04T14:01:44.052Z,99691.66
2022-10-04T14:07:06.303Z,99703.63
2022-10-04T14:12:36.582Z,99703.75
2022-10-04T14:17:47.994Z,99704.13
2022-10-04T14:23:14.300Z,99707.88
2022-10-04T14:28:27.510Z,99708.72
2022-10-04T14:33:44.005Z,99715.31
2022-10-04T14:39:07.757Z,99712.09
2022-10-04T14:44:45.224Z,99708.41
2022-10-04T14:50:00.253Z,99703.34
2022-10-04T14:55:21.685Z,99715.03
2022-10-04T15:00:36.874Z,99723.16
2022-10-04T15:05:39.102Z,99709.38
2022-10-04T15:10:53.053Z,99696.69
2022-10-04T15:15:58.996Z,99714.41
2022-10-04T15:21:21.216Z,99726.31
2022-10-04T15:26:23.418Z,99729.69
2022-10-04T15:31:50.060Z,99728.44
2022-10-04T15:37:03.499Z,99722.56
2022-10-04T15:42:13.651Z,99735.22
2022-10-04T15:47:34.730Z,99745.59
2022-10-04T15:52:52.234Z,99739.00
2022-10-04T15:57:54.517Z,99744.53
2022-10-04T16:03:02.800Z,99754.19
2022-10-04T16:08:11.650Z,99752.78
2022-10-04T16:13:16.634Z,99766.19
2022-10-04T16:18:51.459Z,99772.34
2022-10-04T16:24:14.820Z,99780.00
2022-10-04T16:29:30.631Z,99789.75
2022-10-04T16:34:44.209Z,99793.31
2022-10-04T16:40:09.561Z,99809.84
2022-10-04T16:45:14.577Z,99819.47
2022-10-04T16:50:38.172Z,99828.06
2022-10-04T16:55:46.214Z,99833.41
2022-10-04T17:00:49.085Z,99833.22
2022-10-04T17:05:53.350Z,99843.03
2022-10-04T17:11:04.682Z,99846.94
2022-10-04T17:16:18.415Z,99845.47
2022-10-04T17:21:28.649Z,99855.50
2022-10-04T17:26:43.328Z,99858.97
2022-10-04T17:32:10.003Z,99867.53
2022-10-04T17:37:16.535Z,99875.31
2022-10-04T17:42:18.781Z,99885.16
2022-10-04T17:47:54.678Z,99893.59
2022-10-04T17:53:19.256Z,99892.28
2022-10-04T17:58:39.951Z,99900.81
2022-10-04T18:03:54.838Z,99906.75
2022-10-04T18:09:19.407Z,99915.22
2022-10-04T18:14:31.013Z,99913.31
2022-10-04T18:19:48.692Z,99916.63
2022-10-04T18:25:14.269Z,99927.59
2022-10-04T18:30:22.773Z,99939.72
2022-10-04T18:35:31.535Z,99943.38
2022-10-04T18:40:35.454Z,99946.94
2022-10-04T18:45:40.551Z,99948.97
2022-10-04T18:50:48.477Z,99955.06
2022-10-04T18:56:00.814Z,99959.66
2022-10-04T19:01:41.802Z,99971.53
2022-10-04T19:06:48.245Z,99980.81
2022-10-04T19:12:23.371Z,99999.63
2022-10-04T19:17:30.830Z,99986.59
2022-10-04T19:22:48.131Z,99997.59
2022-10-04T19:27:52.317Z,100010.00
2022-10-04T19:33:22.345Z,100019.88
2022-10-04T19:38:29.568Z,100031.13
2022-10-04T19:43:42.157Z,100033.91
2022-10-04T19:48:51.737Z,100032.94
2022-10-04T19:54:00.828Z,100042.34
2022-10-04T19:59:10.402Z,100051.38
2022-10-04T20:04:35.068Z,100051.16
2022-10-04T20:09:37.343Z,100057.56
2022-10-04T20:14:39.790Z,100064.50
2022-10-04T20:19:43.358Z,100055.38
2022-10-04T20:24:46.654Z,100067.66
2022-10-04T20:29:51.258Z,100066.00
2022-10-04T20:34:56.006Z,100063.88
2022-10-04T20:39:58.298Z,100068.69
2022-10-04T20:45:06.144Z,100074.38
2022-10-04T20:50:13.283Z,100074.38
2022-10-04T20:55:28.312Z,100076.75
2022-10-04T21:00:34.659Z,100085.00
2022-10-04T21:05:37.158Z,100089.94
2022-10-04T21:10:39.623Z,100091.28
2022-10-04T21:15:54.997Z,100097.53
2022-10-04T21:21:00.205Z,100090.56
2022-10-04T21:26:21.134Z,100105.09
2022-10-04T21:31:23.603Z,100091.59
2022-10-04T21:36:25.849Z,100098.75
2022-10-04T21:41:28.153Z,100101.44
2022-10-04T21:46:32.830Z,100105.97
2022-10-04T21:51:40.139Z,100103.34
2022-10-04T21:56:42.832Z,100095.19
2022-10-04T22:01:45.163Z,100101.81
2022-10-04T22:06:49.061Z,100099.81
2022-10-04T22:11:52.553Z,100096.69
2022-10-04T22:17:05.033Z,100092.72
2022-10-04T22:22:12.366Z,100095.00
2022-10-04T22:27:18.974Z,100095.41
2022-10-04T22:32:21.167Z,100092.09
2022-10-04T22:37:25.832Z,100087.47
2022-10-04T22:42:31.412Z,100091.78
2022-10-04T22:47:33.924Z,100091.00
2022-10-04T22:52:36.258Z,100096.41
2022-10-04T22:57:38.490Z,100094.72
2022-10-04T23:02:41.003Z,100096.56
2022-10-04T23:07:44.471Z,100097.13
2022-10-04T23:12:47.706Z,100088.00
2022-10-04T23:17:55.376Z,100100.94
2022-10-04T23:22:59.471Z,100100.50
2022-10-04T23:28:03.133Z,100102.63
2022-10-04T23:33:19.869Z,100096.91
2022-10-04T23:38:24.358Z,100097.88
2022-10-04T23:43:26.991Z,100107.50
2022-10-04T23:48:33.290Z,100104.31
2022-10-04T23:53:38.401Z,100111.84
2022-10-04T23:58:41.166Z,100106.25
